Time;durP1;ratioP1;P1;durP2;ratioP2;P2;SDS_P1;SDS_P2;PMS_P1;PMS_P2;Temp;Humidity;BMP_temperature;BMP_pressure;BME280_temperature;BME280_humidity;BME280_pressure;Samples;Min_cycle;Max_cycle;Signal;HPM_P1;HPM_P2
2022/01/10 00:00:47;;;;;;;30.17;14.90;;;;;;;;;;2056035;28;20198;-61
2022/01/10 00:01:48;;;;;;;25.70;13.83;;;;;;;;;;2056799;28;20698;-60
2022/01/10 00:02:50;;;;;;;25.23;16.67;;;;;;;;;;2055989;28;20195;-61
2022/01/10 00:03:51;;;;;;;32.20;15.50;;;;;;;;;;2056277;28;20174;-60
2022/01/10 00:04:51;;;;;;;27.23;15.73;;;;;;;;;;2056116;28;20245;-62
2022/01/10 00:05:51;;;;;;;32.30;17.10;;;;;;;;;;2057338;28;20206;-60
2022/01/10 00:06:51;;;;;;;22.43;15.17;;;;;;;;;;2061658;28;20256;-61
2022/01/10 00:07:52;;;;;;;31.90;15.63;;;;;;;;;;2056145;28;20244;-61
2022/01/10 00:08:52;;;;;;;27.73;15.50;;;;;;;;;;2055423;28;20178;-59
2022/01/10 00:09:52;;;;;;;27.07;16.73;;;;;;;;;;2055808;28;20269;-60
2022/01/10 00:10:53;;;;;;;30.87;15.53;;;;;;;;;;2056323;28;20257;-60
2022/01/10 00:11:53;;;;;;;28.83;16.23;;;;;;;;;;2056236;28;20186;-61
2022/01/10 00:12:53;;;;;;;33.50;15.83;;;;;;;;;;2055153;28;20280;-60
2022/01/10 00:13:54;;;;;;;36.03;16.57;;;;;;;;;;2054810;28;20202;-61
2022/01/10 00:14:54;;;;;;;33.17;16.90;;;;;;;;;;2055536;28;20567;-59
2022/01/10 00:15:54;;;;;;;29.83;15.73;;;;;;;;;;2055879;28;20582;-61
2022/01/10 00:16:55;;;;;;;34.47;15.77;;;;;;;;;;2056095;28;20188;-61
2022/01/10 00:17:55;;;;;;;32.60;16.17;;;;;;;;;;2055164;28;20598;-61
2022/01/10 00:18:55;;;;;;;28.23;15.37;;;;;;;;;;2055527;28;20181;-59
2022/01/10 00:19:55;;;;;;;28.37;16.23;;;;;;;;;;2053669;28;20204;-62
2022/01/10 00:20:56;;;;;;;30.97;17.33;;;;;;;;;;2056297;28;20182;-62
2022/01/10 00:21:56;;;;;;;35.60;17.07;;;;;;;;;;2055060;28;20186;-61
2022/01/10 00:22:56;;;;;;;33.93;16.67;;;;;;;;;;2055114;28;20221;-59
2022/01/10 00:23:56;;;;;;;29.30;16.87;;;;;;;;;;2055679;28;20182;-59
2022/01/10 00:24:57;;;;;;;29.50;16.60;;;;;;;;;;2017138;28;1114845;-60
2022/01/10 00:25:57;;;;;;;49.33;18.47;;;;;;;;;;2055940;28;20209;-62
2022/01/10 00:26:57;;;;;;;34.10;16.80;;;;;;;;;;2056483;28;20182;-62
2022/01/10 00:27:58;;;;;;;32.37;18.00;;;;;;;;;;2052532;28;20311;-60
2022/01/10 00:28:58;;;;;;;31.80;16.93;;;;;;;;;;2055899;28;20175;-57
2022/01/10 00:29:58;;;;;;;35.17;18.47;;;;;;;;;;2055761;28;20241;-61
2022/01/10 00:30:59;;;;;;;31.80;17.50;;;;;;;;;;2048492;29;20171;-60
2022/01/10 00:31:59;;;;;;;28.07;16.20;;;;;;;;;;2047486;28;20691;-59
2022/01/10 00:32:59;;;;;;;36.00;18.07;;;;;;;;;;2055754;28;20186;-55
2022/01/10 00:34:00;;;;;;;39.67;18.03;;;;;;;;;;2059950;28;20185;-59
2022/01/10 00:35:00;;;;;;;33.07;16.90;;;;;;;;;;2055793;28;20166;-61
2022/01/10 00:36:00;;;;;;;30.23;17.37;;;;;;;;;;2055671;28;20257;-59
2022/01/10 00:37:01;;;;;;;31.03;17.30;;;;;;;;;;2055986;28;20182;-63
2022/01/10 00:38:01;;;;;;;35.63;17.37;;;;;;;;;;2055649;28;20270;-60
2022/01/10 00:39:02;;;;;;;39.27;18.17;;;;;;;;;;2055884;28;20559;-62
2022/01/10 00:40:03;;;;;;;42.30;18.33;;;;;;;;;;2055225;28;20190;-61
2022/01/10 00:41:04;;;;;;;44.30;18.57;;;;;;;;;;2048127;28;20281;-62
2022/01/10 00:42:04;;;;;;;32.30;17.53;;;;;;;;;;2048117;29;20171;-62
2022/01/10 00:43:04;;;;;;;35.33;17.90;;;;;;;;;;2056031;28;20313;-60
2022/01/10 00:44:05;;;;;;;33.97;17.60;;;;;;;;;;2055983;28;20174;-62
2022/01/10 00:45:17;;;;;;;31.57;17.13;;;;;;;;;;2055644;28;20213;-62
2022/01/10 00:46:17;;;;;;;32.07;17.10;;;;;;;;;;2056154;28;20182;-62
2022/01/10 00:47:18;;;;;;;35.30;18.57;;;;;;;;;;2056856;28;20646;-63
2022/01/10 00:48:18;;;;;;;36.40;17.57;;;;;;;;;;2047522;28;20187;-62
2022/01/10 00:49:18;;;;;;;39.23;18.63;;;;;;;;;;2045499;29;20178;-62
2022/01/10 00:50:19;;;;;;;32.03;18.03;;;;;;;;;;2045032;28;20183;-62
2022/01/10 00:51:19;;;;;;;32.07;18.23;;;;;;;;;;2042243;28;20180;-60
2022/01/10 00:52:21;;;;;;;30.33;18.77;;;;;;;;;;2053744;28;20245;-62
2022/01/10 00:53:22;;;;;;;35.20;17.20;;;;;;;;;;2056247;28;20178;-59
2022/01/10 00:54:22;;;;;;;32.63;17.70;;;;;;;;;;2055806;28;20697;-61
2022/01/10 00:55:23;;;;;;;40.57;18.80;;;;;;;;;;2055670;28;20220;-61
2022/01/10 00:56:23;;;;;;;36.60;17.23;;;;;;;;;;2056515;28;20635;-59
2022/01/10 00:57:24;;;;;;;34.33;18.17;;;;;;;;;;2050117;28;20651;-62
2022/01/10 00:58:24;;;;;;;35.30;19.60;;;;;;;;;;2053999;28;20186;-59
2022/01/10 00:59:24;;;;;;;35.33;18.53;;;;;;;;;;2050677;28;20181;-60
2022/01/10 01:00:24;;;;;;;31.93;18.20;;;;;;;;;;2055988;28;20178;-62
2022/01/10 01:01:25;;;;;;;35.37;18.27;;;;;;;;;;2055492;28;20214;-60
2022/01/10 01:02:31;;;;;;;34.00;18.50;;;;;;;;;;2057721;28;20177;-62
2022/01/10 01:03:31;;;;;;;36.20;18.17;;;;;;;;;;2049518;28;20183;-58
2022/01/10 01:04:32;;;;;;;38.67;19.17;;;;;;;;;;2056836;28;20209;-59
2022/01/10 01:05:38;;;;;;;39.30;18.97;;;;;;;;;;2057285;28;20240;-60
2022/01/10 01:06:38;;;;;;;33.03;18.60;;;;;;;;;;2044935;28;20186;-61
2022/01/10 01:07:38;;;;;;;40.20;18.70;;;;;;;;;;2040765;29;20179;-61
2022/01/10 01:08:39;;;;;;;35.37;19.00;;;;;;;;;;2055949;28;20605;-62
2022/01/10 01:09:43;;;;;;;29.40;17.07;;;;;;;;;;2056146;28;20174;-62
2022/01/10 01:11:09;;;;;;;38.77;19.17;;;;;;;;;;2056457;28;20174;-60
2022/01/10 01:12:18;;;;;;;35.93;18.43;;;;;;;;;;2053106;28;20178;-62
2022/01/10 01:14:24;;;;;;;36.67;18.77;;;;;;;;;;2055901;28;20193;-59
2022/01/10 01:17:31;;;;;;;30.53;16.13;;;;;;;;;;2052097;28;20210;-61
2022/01/10 01:24:54;;;;;;;24.97;16.53;;;;;;;;;;2056889;28;20171;-61
2022/01/10 01:25:55;;;;;;;31.17;16.67;;;;;;;;;;2056856;28;20234;-62
2022/01/10 01:26:55;;;;;;;34.47;17.40;;;;;;;;;;2055795;28;20162;-58
2022/01/10 01:27:55;;;;;;;33.07;16.97;;;;;;;;;;2050715;28;20197;-62
2022/01/10 01:28:56;;;;;;;33.30;17.07;;;;;;;;;;2055743;28;20270;-61
2022/01/10 01:29:56;;;;;;;28.17;16.60;;;;;;;;;;2047356;28;20178;-60
2022/01/10 01:30:57;;;;;;;34.27;17.90;;;;;;;;;;2048361;29;20194;-62
2022/01/10 01:31:57;;;;;;;32.47;18.77;;;;;;;;;;2054997;28;20197;-60
2022/01/10 01:32:58;;;;;;;38.73;17.90;;;;;;;;;;2047480;28;20245;-62
2022/01/10 01:33:59;;;;;;;32.37;18.37;;;;;;;;;;2053028;28;20178;-62
2022/01/10 01:35:05;;;;;;;42.53;18.47;;;;;;;;;;2043415;29;20167;-60
2022/01/10 01:36:05;;;;;;;34.70;17.40;;;;;;;;;;2056100;28;20186;-60
2022/01/10 01:37:08;;;;;;;35.57;17.97;;;;;;;;;;2055571;28;20305;-59
2022/01/10 01:38:09;;;;;;;31.20;17.83;;;;;;;;;;2051056;28;20381;-60
2022/01/10 01:39:23;;;;;;;26.93;17.17;;;;;;;;;;2055793;28;20186;-61
2022/01/10 01:40:31;;;;;;;36.70;17.37;;;;;;;;;;2054277;28;20666;-60
2022/01/10 01:42:41;;;;;;;32.77;17.77;;;;;;;;;;2048766;28;20798;-61
2022/01/10 01:43:43;;;;;;;33.73;16.53;;;;;;;;;;2050428;28;20179;-60
2022/01/10 01:44:47;;;;;;;34.27;18.80;;;;;;;;;;2048887;28;20266;-59
2022/01/10 01:45:48;;;;;;;36.53;18.03;;;;;;;;;;2057828;28;20589;-60
2022/01/10 01:46:48;;;;;;;35.10;17.37;;;;;;;;;;2057310;28;20189;-61
2022/01/10 01:47:50;;;;;;;32.40;18.60;;;;;;;;;;2057258;28;20644;-59
2022/01/10 01:48:56;;;;;;;35.67;18.23;;;;;;;;;;2051752;28;20178;-58
2022/01/10 01:50:00;;;;;;;33.23;18.80;;;;;;;;;;2049304;28;20191;-59
2022/01/10 01:51:02;;;;;;;37.43;18.30;;;;;;;;;;2057689;28;20285;-61
2022/01/10 01:52:03;;;;;;;39.43;18.17;;;;;;;;;;2057245;28;20182;-60
2022/01/10 01:53:04;;;;;;;32.97;18.03;;;;;;;;;;2048612;28;20214;-61
2022/01/10 01:54:05;;;;;;;38.07;19.07;;;;;;;;;;2056707;28;20321;-61
2022/01/10 01:55:07;;;;;;;42.20;17.70;;;;;;;;;;2058060;28;20171;-62
2022/01/10 01:56:09;;;;;;;28.50;17.30;;;;;;;;;;2056359;28;20225;-60
2022/01/10 01:57:09;;;;;;;31.10;17.90;;;;;;;;;;2048743;28;20673;-60
2022/01/10 01:58:10;;;;;;;28.07;16.67;;;;;;;;;;2051908;28;20190;-60
2022/01/10 01:59:12;;;;;;;33.50;17.03;;;;;;;;;;2054028;28;20186;-61
2022/01/10 02:00:12;;;;;;;33.13;17.03;;;;;;;;;;2047570;28;20178;-62
2022/01/10 02:01:18;;;;;;;27.27;16.97;;;;;;;;;;2056348;28;20190;-63
2022/01/10 02:02:20;;;;;;;32.37;17.60;;;;;;;;;;2060565;28;20177;-59
2022/01/10 02:03:20;;;;;;;32.13;18.27;;;;;;;;;;2058300;28;20530;-62
2022/01/10 02:04:29;;;;;;;35.23;16.87;;;;;;;;;;2049714;28;20261;-56
2022/01/10 02:05:31;;;;;;;34.00;17.80;;;;;;;;;;2056604;28;20676;-57
2022/01/10 02:06:32;;;;;;;35.57;19.13;;;;;;;;;;2064068;28;20174;-61
2022/01/10 02:07:32;;;;;;;35.73;18.40;;;;;;;;;;2056895;28;20209;-59
2022/01/10 02:08:33;;;;;;;38.30;19.30;;;;;;;;;;2049227;28;20183;-59
2022/01/10 02:09:34;;;;;;;33.23;19.03;;;;;;;;;;2049021;29;20631;-58
2022/01/10 02:10:34;;;;;;;32.00;19.87;;;;;;;;;;2048977;28;20222;-58
2022/01/10 02:11:34;;;;;;;29.20;19.37;;;;;;;;;;2057347;28;20189;-57
2022/01/10 02:12:36;;;;;;;39.57;20.47;;;;;;;;;;2057711;28;20209;-61
2022/01/10 02:13:41;;;;;;;31.33;18.60;;;;;;;;;;2047834;28;20171;-57
2022/01/10 02:14:57;;;;;;;35.27;16.87;;;;;;;;;;2051454;28;20762;-58
2022/01/10 02:16:05;;;;;;;35.20;18.10;;;;;;;;;;2049186;28;20183;-61
2022/01/10 02:17:09;;;;;;;38.07;18.97;;;;;;;;;;2057494;28;20175;-59
2022/01/10 02:18:20;;;;;;;33.80;19.53;;;;;;;;;;2049530;28;20183;-61
2022/01/10 02:19:24;;;;;;;36.43;18.23;;;;;;;;;;2049135;28;20179;-57
2022/01/10 02:20:27;;;;;;;36.30;18.77;;;;;;;;;;2049117;28;20211;-60
2022/01/10 02:21:27;;;;;;;37.93;18.27;;;;;;;;;;2056389;28;20237;-61
2022/01/10 02:22:27;;;;;;;34.93;18.10;;;;;;;;;;2056197;28;20632;-62
2022/01/10 02:23:40;;;;;;;38.10;18.80;;;;;;;;;;2044946;28;20174;-60
2022/01/10 02:24:46;;;;;;;37.17;18.53;;;;;;;;;;2050420;28;20579;-58
2022/01/10 02:25:46;;;;;;;41.80;19.73;;;;;;;;;;2048808;28;20210;-63
2022/01/10 02:26:48;;;;;;;37.07;18.40;;;;;;;;;;2057692;28;20220;-59
2022/01/10 02:27:48;;;;;;;32.53;19.23;;;;;;;;;;2057310;28;20619;-60
2022/01/10 02:28:49;;;;;;;37.93;18.80;;;;;;;;;;2056726;28;20178;-58
2022/01/10 02:29:50;;;;;;;33.23;19.10;;;;;;;;;;2049157;29;20266;-59
2022/01/10 02:30:57;;;;;;;40.97;19.03;;;;;;;;;;2049405;28;20213;-61
2022/01/10 02:31:57;;;;;;;31.37;18.37;;;;;;;;;;2057351;28;20181;-55
2022/01/10 02:33:00;;;;;;;38.17;20.23;;;;;;;;;;2055928;28;20285;-60
2022/01/10 02:34:00;;;;;;;33.60;18.00;;;;;;;;;;2049015;28;20175;-60
2022/01/10 02:35:01;;;;;;;37.43;19.20;;;;;;;;;;2057217;28;20602;-59
2022/01/10 02:37:02;;;;;;;30.23;17.07;;;;;;;;;;2048837;28;20719;-60
2022/01/10 02:38:06;;;;;;;33.50;18.47;;;;;;;;;;2050332;28;20662;-58
2022/01/10 02:39:09;;;;;;;37.33;18.17;;;;;;;;;;2049329;28;20217;-61
2022/01/10 02:40:13;;;;;;;33.17;17.83;;;;;;;;;;2041471;28;20271;-58
2022/01/10 02:41:18;;;;;;;33.87;17.20;;;;;;;;;;2049957;28;20193;-59
2022/01/10 02:42:18;;;;;;;34.00;18.23;;;;;;;;;;2049612;28;20182;-60
2022/01/10 02:43:19;;;;;;;37.10;17.90;;;;;;;;;;2049519;29;20730;-60
2022/01/10 02:44:19;;;;;;;30.07;17.07;;;;;;;;;;2049223;29;20194;-59
2022/01/10 02:45:20;;;;;;;32.57;17.27;;;;;;;;;;2054679;28;20189;-59
2022/01/10 02:46:21;;;;;;;31.00;17.00;;;;;;;;;;2055058;28;20780;-61
2022/01/10 02:47:21;;;;;;;33.47;17.40;;;;;;;;;;2056857;28;20612;-60
2022/01/10 02:48:22;;;;;;;29.00;18.30;;;;;;;;;;2049347;28;20207;-60
2022/01/10 02:49:23;;;;;;;31.03;17.40;;;;;;;;;;2057640;28;20208;-59
2022/01/10 02:50:24;;;;;;;28.40;17.20;;;;;;;;;;2058496;28;20182;-57
2022/01/10 02:51:24;;;;;;;35.13;17.00;;;;;;;;;;2050281;28;20282;-59
2022/01/10 02:52:25;;;;;;;25.87;16.30;;;;;;;;;;2054260;28;20183;-55
2022/01/10 02:53:28;;;;;;;32.47;17.33;;;;;;;;;;2054615;28;20181;-59
2022/01/10 02:54:28;;;;;;;29.63;17.97;;;;;;;;;;2048970;28;20713;-59
2022/01/10 02:55:30;;;;;;;35.00;17.93;;;;;;;;;;2050068;28;20179;-59
2022/01/10 02:56:30;;;;;;;27.87;16.20;;;;;;;;;;2052517;28;20179;-58
2022/01/10 02:57:31;;;;;;;31.57;16.83;;;;;;;;;;2056615;28;20854;-60
2022/01/10 02:58:31;;;;;;;33.90;16.97;;;;;;;;;;2049012;28;20242;-61
2022/01/10 02:59:32;;;;;;;26.10;16.57;;;;;;;;;;2048948;28;20183;-58
2022/01/10 03:00:32;;;;;;;28.37;17.17;;;;;;;;;;2048516;29;20270;-60
2022/01/10 03:01:32;;;;;;;29.20;17.33;;;;;;;;;;2056973;28;20178;-61
2022/01/10 03:02:34;;;;;;;35.27;18.17;;;;;;;;;;2048805;28;20205;-59
2022/01/10 03:03:34;;;;;;;30.63;16.50;;;;;;;;;;2049040;28;20178;-59
2022/01/10 03:04:35;;;;;;;41.40;18.43;;;;;;;;;;2057364;28;20178;-58
2022/01/10 03:05:35;;;;;;;31.10;17.87;;;;;;;;;;2057368;28;20202;-57
2022/01/10 03:06:36;;;;;;;38.40;17.10;;;;;;;;;;2057930;28;20163;-57
2022/01/10 03:07:38;;;;;;;27.27;16.30;;;;;;;;;;2051473;28;20199;-61
2022/01/10 03:08:39;;;;;;;27.60;17.20;;;;;;;;;;2059556;28;20175;-61
2022/01/10 03:09:41;;;;;;;25.30;16.00;;;;;;;;;;2057580;28;20261;-61
2022/01/10 03:10:43;;;;;;;27.63;16.43;;;;;;;;;;2049191;28;20207;-57
2022/01/10 03:11:43;;;;;;;24.33;15.17;;;;;;;;;;2049120;29;20171;-59
2022/01/10 03:12:44;;;;;;;26.00;15.97;;;;;;;;;;2048990;28;20199;-59
2022/01/10 03:13:47;;;;;;;29.17;15.67;;;;;;;;;;2056634;28;20187;-62
2022/01/10 03:14:48;;;;;;;29.73;15.27;;;;;;;;;;2050890;28;20167;-59
2022/01/10 03:15:48;;;;;;;30.80;16.10;;;;;;;;;;2049042;28;20187;-55
2022/01/10 03:16:48;;;;;;;29.37;15.50;;;;;;;;;;2048402;28;20302;-61
2022/01/10 03:17:49;;;;;;;33.00;16.80;;;;;;;;;;2048951;29;20187;-59
2022/01/10 03:18:49;;;;;;;26.23;17.47;;;;;;;;;;2048928;29;20253;-59
2022/01/10 03:19:49;;;;;;;26.23;16.37;;;;;;;;;;2048520;28;20222;-57
2022/01/10 03:20:50;;;;;;;26.43;17.27;;;;;;;;;;2048706;28;20568;-61
2022/01/10 03:21:50;;;;;;;27.33;16.00;;;;;;;;;;2048491;28;20188;-56
2022/01/10 03:22:51;;;;;;;25.80;16.43;;;;;;;;;;2049452;28;20766;-54
2022/01/10 03:23:52;;;;;;;33.03;17.50;;;;;;;;;;2048552;29;20282;-58
2022/01/10 03:24:54;;;;;;;33.73;15.87;;;;;;;;;;2040602;28;20179;-59
2022/01/10 03:25:54;;;;;;;30.30;17.10;;;;;;;;;;2048748;28;20297;-61
2022/01/10 03:26:54;;;;;;;38.80;17.33;;;;;;;;;;2057419;28;20206;-57
2022/01/10 03:27:55;;;;;;;39.90;17.27;;;;;;;;;;2056874;28;20325;-59
2022/01/10 03:28:56;;;;;;;30.67;16.40;;;;;;;;;;2057003;28;20174;-56
2022/01/10 03:29:56;;;;;;;33.90;18.27;;;;;;;;;;2056554;28;20171;-58
2022/01/10 03:30:56;;;;;;;33.63;17.97;;;;;;;;;;2057594;28;20166;-59
2022/01/10 03:31:57;;;;;;;32.17;17.73;;;;;;;;;;2057043;28;20182;-59
2022/01/10 03:32:59;;;;;;;37.97;17.97;;;;;;;;;;2056324;28;20201;-60
2022/01/10 03:34:11;;;;;;;31.97;18.17;;;;;;;;;;2057446;28;20162;-60
2022/01/10 03:35:11;;;;;;;30.20;18.13;;;;;;;;;;2048927;28;20186;-61
2022/01/10 03:36:12;;;;;;;34.37;17.90;;;;;;;;;;2045297;28;20183;-61
2022/01/10 03:37:13;;;;;;;31.50;17.27;;;;;;;;;;2055578;28;20184;-62
2022/01/10 03:38:16;;;;;;;31.07;18.73;;;;;;;;;;2059910;28;20214;-62
2022/01/10 03:39:16;;;;;;;29.67;16.70;;;;;;;;;;2052400;29;20186;-60
2022/01/10 03:40:17;;;;;;;33.77;16.67;;;;;;;;;;2063328;28;20209;-63
2022/01/10 03:41:17;;;;;;;30.00;16.70;;;;;;;;;;2064236;28;20197;-62
2022/01/10 03:42:17;;;;;;;31.83;17.73;;;;;;;;;;2063395;28;20206;-60
2022/01/10 03:43:19;;;;;;;34.47;17.90;;;;;;;;;;2061887;28;20210;-59
2022/01/10 03:44:20;;;;;;;31.27;16.97;;;;;;;;;;2056847;28;20269;-62
2022/01/10 03:45:20;;;;;;;33.53;18.37;;;;;;;;;;2048965;28;20189;-58
2022/01/10 03:46:20;;;;;;;27.97;16.97;;;;;;;;;;2056574;28;20229;-59
2022/01/10 03:47:21;;;;;;;36.03;18.10;;;;;;;;;;2048139;28;20824;-60
2022/01/10 03:48:22;;;;;;;26.60;17.70;;;;;;;;;;2057554;28;20175;-60
2022/01/10 03:49:23;;;;;;;32.60;17.97;;;;;;;;;;2056210;28;20201;-60
2022/01/10 03:50:23;;;;;;;30.23;17.33;;;;;;;;;;2049294;28;20185;-58
2022/01/10 03:51:24;;;;;;;36.13;16.93;;;;;;;;;;2053289;28;20237;-59
2022/01/10 03:52:25;;;;;;;31.23;18.63;;;;;;;;;;2048230;28;20211;-59
2022/01/10 03:53:26;;;;;;;27.10;17.57;;;;;;;;;;2048266;28;20171;-57
2022/01/10 03:54:27;;;;;;;38.20;18.17;;;;;;;;;;2048172;28;20217;-62
2022/01/10 03:55:29;;;;;;;33.83;16.87;;;;;;;;;;2042089;28;20342;-62
2022/01/10 03:56:32;;;;;;;30.23;18.40;;;;;;;;;;2036454;29;20176;-60
2022/01/10 03:57:34;;;;;;;31.00;17.87;;;;;;;;;;2055758;28;20229;-60
2022/01/10 03:58:35;;;;;;;26.50;17.70;;;;;;;;;;2056044;28;20666;-58
2022/01/10 03:59:35;;;;;;;32.47;17.57;;;;;;;;;;2056162;28;20181;-59
2022/01/10 04:00:35;;;;;;;28.40;17.20;;;;;;;;;;2048295;28;20257;-61
2022/01/10 04:01:38;;;;;;;31.53;16.80;;;;;;;;;;2055969;28;20193;-61
2022/01/10 04:02:43;;;;;;;34.37;18.10;;;;;;;;;;2056044;28;20297;-61
2022/01/10 04:03:43;;;;;;;34.07;16.83;;;;;;;;;;2056376;28;20171;-61
2022/01/10 04:04:46;;;;;;;29.73;18.73;;;;;;;;;;2056255;28;20178;-57
2022/01/10 04:05:47;;;;;;;31.57;17.70;;;;;;;;;;2047778;29;20211;-57
2022/01/10 04:06:49;;;;;;;43.27;18.27;;;;;;;;;;2048776;28;20182;-60
2022/01/10 04:07:50;;;;;;;30.60;17.37;;;;;;;;;;2048549;28;20175;-61
2022/01/10 04:08:50;;;;;;;29.03;17.77;;;;;;;;;;2048301;28;20194;-59
2022/01/10 04:09:50;;;;;;;24.67;17.63;;;;;;;;;;2048841;28;20666;-59
2022/01/10 04:10:52;;;;;;;32.83;18.33;;;;;;;;;;2056876;28;20250;-61
2022/01/10 04:11:52;;;;;;;32.37;18.37;;;;;;;;;;2056472;28;20219;-61
2022/01/10 04:12:52;;;;;;;28.97;18.40;;;;;;;;;;2048308;28;20221;-61
2022/01/10 04:13:53;;;;;;;34.20;18.07;;;;;;;;;;2047774;28;20220;-60
2022/01/10 04:14:53;;;;;;;31.23;19.07;;;;;;;;;;2040540;28;20179;-60
2022/01/10 04:15:53;;;;;;;29.73;18.70;;;;;;;;;;2047769;28;20270;-61
2022/01/10 04:16:54;;;;;;;35.30;20.20;;;;;;;;;;2063201;28;20169;-60
2022/01/10 04:17:56;;;;;;;34.30;19.80;;;;;;;;;;2056505;28;20245;-58
2022/01/10 04:18:57;;;;;;;29.63;18.67;;;;;;;;;;2056186;28;20186;-59
2022/01/10 04:19:58;;;;;;;32.43;20.37;;;;;;;;;;2047868;28;20790;-60
2022/01/10 04:20:59;;;;;;;37.20;19.87;;;;;;;;;;2050992;28;20174;-60
2022/01/10 04:21:59;;;;;;;31.30;18.87;;;;;;;;;;2052177;28;20183;-60
2022/01/10 04:22:59;;;;;;;39.37;19.77;;;;;;;;;;2039587;28;20207;-60
2022/01/10 04:24:00;;;;;;;35.07;20.17;;;;;;;;;;2056188;28;20190;-62
2022/01/10 04:25:00;;;;;;;34.93;19.80;;;;;;;;;;2047839;28;20210;-61
2022/01/10 04:26:02;;;;;;;28.90;18.73;;;;;;;;;;2048112;28;20831;-60
2022/01/10 04:27:06;;;;;;;32.93;19.00;;;;;;;;;;2048533;28;20581;-61
2022/01/10 04:28:07;;;;;;;36.80;20.60;;;;;;;;;;2048332;28;20190;-60
2022/01/10 04:29:07;;;;;;;30.10;18.60;;;;;;;;;;2048258;28;20274;-62
2022/01/10 04:30:08;;;;;;;36.10;19.00;;;;;;;;;;2049568;28;20218;-62
2022/01/10 04:31:11;;;;;;;32.53;20.10;;;;;;;;;;2048228;28;20589;-62
2022/01/10 04:32:12;;;;;;;31.10;20.23;;;;;;;;;;2048608;28;20587;-60
2022/01/10 04:33:17;;;;;;;31.13;19.07;;;;;;;;;;2047805;28;20738;-62
2022/01/10 04:34:17;;;;;;;37.23;20.70;;;;;;;;;;2047196;28;20202;-60
2022/01/10 04:35:18;;;;;;;33.47;21.10;;;;;;;;;;2053000;28;20268;-61
2022/01/10 04:36:18;;;;;;;34.43;21.00;;;;;;;;;;2047943;28;20709;-61
2022/01/10 04:37:18;;;;;;;34.37;20.70;;;;;;;;;;2048166;29;20187;-61
2022/01/10 04:38:18;;;;;;;36.40;21.67;;;;;;;;;;2055883;28;20640;-60
2022/01/10 04:39:19;;;;;;;40.23;21.40;;;;;;;;;;2047793;28;20210;-61
2022/01/10 04:40:19;;;;;;;39.73;20.47;;;;;;;;;;2053812;28;20240;-60
2022/01/10 04:41:20;;;;;;;37.63;22.60;;;;;;;;;;2055695;28;20178;-61
2022/01/10 04:42:20;;;;;;;36.10;21.17;;;;;;;;;;2049099;28;20218;-61
2022/01/10 04:43:20;;;;;;;40.37;20.63;;;;;;;;;;2047683;28;20556;-60
2022/01/10 04:44:21;;;;;;;40.23;20.90;;;;;;;;;;2040467;28;20171;-62
2022/01/10 04:45:21;;;;;;;33.77;20.97;;;;;;;;;;2056353;28;20178;-62
2022/01/10 04:46:21;;;;;;;34.87;20.17;;;;;;;;;;2055668;28;20204;-59
2022/01/10 04:47:22;;;;;;;33.47;19.33;;;;;;;;;;2062227;28;20701;-60
2022/01/10 04:48:22;;;;;;;40.23;19.37;;;;;;;;;;2055562;28;20257;-59
2022/01/10 04:49:26;;;;;;;40.20;19.60;;;;;;;;;;2055813;28;20186;-65
2022/01/10 04:51:10;;;;;;;36.70;18.83;;;;;;;;;;2055852;28;20185;-62
2022/01/10 04:52:03;;;;;;;29.57;19.00;;;;;;;;;;2052311;28;20203;-61
2022/01/10 04:53:03;;;;;;;34.83;19.87;;;;;;;;;;2055273;28;20248;-59
2022/01/10 04:54:03;;;;;;;37.10;19.80;;;;;;;;;;2055541;28;20543;-61
2022/01/10 04:55:04;;;;;;;35.87;20.83;;;;;;;;;;2052608;28;20175;-58
2022/01/10 04:56:05;;;;;;;34.10;20.43;;;;;;;;;;2047400;28;20186;-59
2022/01/10 04:57:06;;;;;;;35.80;19.03;;;;;;;;;;2048045;28;20210;-58
2022/01/10 04:58:06;;;;;;;37.30;19.63;;;;;;;;;;2051673;28;20182;-59
2022/01/10 04:59:06;;;;;;;40.47;20.40;;;;;;;;;;2044070;28;20229;-60
2022/01/10 05:00:08;;;;;;;44.20;20.33;;;;;;;;;;2051027;28;20189;-56
2022/01/10 05:01:09;;;;;;;31.90;19.47;;;;;;;;;;2055746;28;20182;-57
2022/01/10 05:02:10;;;;;;;32.07;19.63;;;;;;;;;;2047426;28;20655;-58
2022/01/10 05:03:10;;;;;;;35.90;19.60;;;;;;;;;;2047293;28;20195;-59
2022/01/10 05:04:11;;;;;;;35.47;19.83;;;;;;;;;;2052795;28;20642;-59
2022/01/10 05:05:12;;;;;;;35.17;18.23;;;;;;;;;;2054559;28;20551;-58
2022/01/10 05:06:13;;;;;;;33.83;17.87;;;;;;;;;;2051053;28;20281;-54
2022/01/10 05:07:14;;;;;;;31.90;17.10;;;;;;;;;;2045984;28;22155;-60
2022/01/10 05:08:16;;;;;;;25.77;16.20;;;;;;;;;;2053789;28;20824;-62
2022/01/10 05:09:17;;;;;;;32.93;17.60;;;;;;;;;;2047642;28;20182;-59
2022/01/10 05:10:22;;;;;;;28.30;16.50;;;;;;;;;;2081530;23;20670;-61
2022/01/10 05:11:23;;;;;;;33.20;17.47;;;;;;;;;;2046903;28;20589;-56
2022/01/10 05:12:26;;;;;;;32.37;17.23;;;;;;;;;;2055295;28;20264;-59
2022/01/10 05:13:26;;;;;;;25.40;18.60;;;;;;;;;;2052236;28;20199;-56
2022/01/10 05:14:27;;;;;;;26.43;17.43;;;;;;;;;;2059241;28;20172;-58
2022/01/10 05:15:28;;;;;;;28.70;18.93;;;;;;;;;;2046109;28;20451;-58
2022/01/10 05:16:28;;;;;;;31.63;18.27;;;;;;;;;;2049401;28;20198;-60
2022/01/10 05:17:29;;;;;;;34.07;19.33;;;;;;;;;;2038924;29;20219;-58
2022/01/10 05:18:31;;;;;;;32.03;18.63;;;;;;;;;;2057566;28;20297;-55
2022/01/10 05:19:31;;;;;;;30.33;19.30;;;;;;;;;;2065414;28;20174;-56
2022/01/10 05:20:31;;;;;;;29.63;18.27;;;;;;;;;;2058660;28;20755;-55
2022/01/10 05:21:32;;;;;;;37.27;19.30;;;;;;;;;;2049693;28;20190;-56
2022/01/10 05:22:33;;;;;;;30.30;20.53;;;;;;;;;;2050949;29;20230;-60
2022/01/10 05:23:33;;;;;;;33.83;18.97;;;;;;;;;;2050211;28;20628;-56
2022/01/10 05:24:34;;;;;;;36.33;19.43;;;;;;;;;;2050762;29;20239;-56
2022/01/10 05:25:39;;;;;;;33.33;19.30;;;;;;;;;;2051088;28;20185;-59
2022/01/10 05:26:40;;;;;;;38.40;20.63;;;;;;;;;;2046460;29;20171;-57
2022/01/10 05:27:42;;;;;;;34.40;19.67;;;;;;;;;;2058729;28;20180;-57
2022/01/10 05:28:43;;;;;;;30.43;19.63;;;;;;;;;;2058608;28;20576;-58
2022/01/10 05:29:43;;;;;;;31.13;18.37;;;;;;;;;;2051484;28;20171;-58
2022/01/10 05:30:45;;;;;;;31.63;19.30;;;;;;;;;;2051438;28;20197;-58
2022/01/10 05:31:48;;;;;;;35.60;21.53;;;;;;;;;;2051676;28;20166;-57
2022/01/10 05:33:09;;;;;;;34.07;19.07;;;;;;;;;;2049689;29;20765;-59
2022/01/10 05:34:15;;;;;;;32.10;19.00;;;;;;;;;;2050798;28;20167;-57
2022/01/10 05:35:16;;;;;;;32.17;19.10;;;;;;;;;;2055065;28;20233;-57
2022/01/10 05:36:16;;;;;;;36.03;19.10;;;;;;;;;;2052162;28;20174;-56
2022/01/10 05:37:16;;;;;;;31.20;18.93;;;;;;;;;;2049098;28;20638;-56
2022/01/10 05:38:16;;;;;;;31.33;19.67;;;;;;;;;;2049938;29;20171;-56
2022/01/10 05:39:17;;;;;;;30.47;18.27;;;;;;;;;;2055237;28;20186;-59
2022/01/10 05:40:19;;;;;;;26.80;18.87;;;;;;;;;;2052062;28;20645;-57
2022/01/10 05:41:22;;;;;;;39.37;20.87;;;;;;;;;;2051148;28;20178;-59
2022/01/10 05:42:24;;;;;;;35.97;20.47;;;;;;;;;;2058106;28;20419;-58
2022/01/10 05:43:25;;;;;;;37.50;21.63;;;;;;;;;;2056329;28;20186;-57
2022/01/10 05:44:28;;;;;;;28.47;19.83;;;;;;;;;;2051253;28;20179;-59
2022/01/10 05:45:28;;;;;;;35.93;20.37;;;;;;;;;;2057622;28;20202;-59
2022/01/10 05:46:29;;;;;;;35.93;21.10;;;;;;;;;;2056080;28;20197;-56
2022/01/10 05:47:31;;;;;;;42.40;21.93;;;;;;;;;;2050368;28;20636;-58
2022/01/10 05:48:33;;;;;;;38.83;21.97;;;;;;;;;;2050361;28;20655;-56
2022/01/10 05:49:38;;;;;;;34.20;20.23;;;;;;;;;;2042017;29;20230;-57
2022/01/10 05:50:41;;;;;;;40.60;21.43;;;;;;;;;;2039753;29;20239;-57
2022/01/10 05:51:43;;;;;;;42.17;23.17;;;;;;;;;;2050280;28;20171;-57
2022/01/10 05:53:10;;;;;;;34.20;21.30;;;;;;;;;;2052246;28;20191;-55
2022/01/10 05:54:10;;;;;;;39.30;22.80;;;;;;;;;;2049910;28;20250;-56
2022/01/10 05:55:11;;;;;;;40.63;24.00;;;;;;;;;;2041548;28;20402;-59
2022/01/10 05:56:15;;;;;;;34.83;22.43;;;;;;;;;;2048680;29;20996;-59
2022/01/10 05:57:27;;;;;;;35.77;21.13;;;;;;;;;;2051545;28;20646;-55
2022/01/10 05:58:28;;;;;;;36.50;21.07;;;;;;;;;;2049066;28;20273;-56
2022/01/10 05:59:28;;;;;;;43.53;23.43;;;;;;;;;;2040965;29;20175;-56
2022/01/10 06:00:29;;;;;;;45.03;23.77;;;;;;;;;;2040839;29;20643;-58
2022/01/10 06:01:30;;;;;;;42.20;24.03;;;;;;;;;;2048653;29;20194;-58
2022/01/10 06:02:36;;;;;;;41.83;22.57;;;;;;;;;;2049078;28;20179;-58
2022/01/10 06:03:38;;;;;;;35.70;22.20;;;;;;;;;;2049580;29;20424;-57
2022/01/10 06:04:42;;;;;;;46.73;23.17;;;;;;;;;;2051539;28;20294;-55
2022/01/10 06:06:14;;;;;;;37.27;21.33;;;;;;;;;;2044723;29;20218;-57
2022/01/10 06:07:15;;;;;;;37.80;21.53;;;;;;;;;;2058462;28;20186;-58
2022/01/10 06:08:17;;;;;;;40.40;20.87;;;;;;;;;;2058368;28;20175;-60
2022/01/10 06:09:20;;;;;;;29.10;20.17;;;;;;;;;;2051221;28;20186;-56
2022/01/10 06:10:20;;;;;;;36.80;21.17;;;;;;;;;;2050863;28;20229;-58
2022/01/10 06:11:21;;;;;;;40.70;21.47;;;;;;;;;;2059410;28;20572;-59